Time;durP1;ratioP1;P1;durP2;ratioP2;P2;SDS_P1;SDS_P2;PMS_P1;PMS_P2;Temp;Humidity;BMP_temperature;BMP_pressure;BME280_temperature;BME280_humidity;BME280_pressure;Samples;Min_cycle;Max_cycle;Signal;HPM_P1;HPM_P2
2023/03/29 00:01:15;;;;;;;12.68;2.47;;;;;;;12.74;66.74;100937.50;5012267;28;20033;-38
2023/03/29 00:03:44;;;;;;;12.85;3.00;;;;;;;12.58;68.05;100922.75;4998468;28;20026;-43
2023/03/29 00:06:14;;;;;;;11.20;3.28;;;;;;;12.80;67.85;100923.19;4999593;28;20033;-44
2023/03/29 00:08:41;;;;;;;12.50;3.28;;;;;;;12.92;67.78;100916.06;5009977;28;20431;-43
2023/03/29 00:11:07;;;;;;;11.05;3.33;;;;;;;12.88;65.93;100920.25;4993620;28;20034;-42
2023/03/29 00:13:34;;;;;;;11.73;3.72;;;;;;;12.89;65.33;100916.53;4993483;28;20030;-43
2023/03/29 00:16:01;;;;;;;11.43;2.85;;;;;;;12.75;66.02;100920.34;4989917;28;20493;-44
2023/03/29 00:18:27;;;;;;;12.88;2.80;;;;;;;12.63;65.03;100922.09;4993128;28;20502;-42
2023/03/29 00:20:57;;;;;;;16.48;2.95;;;;;;;12.61;65.51;100924.19;4993983;28;20034;-42
2023/03/29 00:23:24;;;;;;;13.40;3.20;;;;;;;12.75;65.54;100923.03;4993899;28;20033;-42
2023/03/29 00:25:54;;;;;;;10.77;3.10;;;;;;;12.69;65.84;100916.66;4994271;28;20037;-42
2023/03/29 00:28:21;;;;;;;11.98;3.03;;;;;;;12.42;65.55;100920.56;4993079;28;20030;-42
2023/03/29 00:30:49;;;;;;;9.52;2.45;;;;;;;12.38;66.53;100925.56;4993684;28;20136;-42
2023/03/29 00:33:19;;;;;;;12.00;2.85;;;;;;;12.25;67.56;100920.25;4993522;28;20026;-43
2023/03/29 00:35:47;;;;;;;8.50;3.00;;;;;;;12.28;66.73;100924.38;4993461;28;20037;-41
2023/03/29 00:38:15;;;;;;;12.10;3.28;;;;;;;12.26;68.32;100916.53;4993358;28;20026;-42
2023/03/29 00:40:44;;;;;;;8.30;2.25;;;;;;;12.42;66.63;100921.38;4993624;28;20033;-42
2023/03/29 00:43:14;;;;;;;10.32;3.40;;;;;;;12.39;66.34;100921.03;4993340;28;20019;-42
2023/03/29 00:45:41;;;;;;;14.32;3.13;;;;;;;12.40;66.03;100915.44;4993275;28;20033;-42
2023/03/29 00:48:11;;;;;;;10.38;3.30;;;;;;;12.22;67.18;100914.53;4993013;28;20059;-43
2023/03/29 00:50:43;;;;;;;14.02;2.92;;;;;;;12.10;67.18;100906.28;4993244;28;20390;-42
2023/03/29 00:53:13;;;;;;;8.85;2.85;;;;;;;12.21;67.86;100907.47;4993460;28;20046;-42
2023/03/29 00:56:00;;;;;;;8.18;2.80;;;;;;;12.08;68.31;100913.75;4993562;28;20105;-42
2023/03/29 00:59:07;;;;;;;10.57;3.47;;;;;;;12.07;67.27;100920.16;5003790;28;20105;-44
2023/03/29 01:01:41;;;;;;;17.02;3.42;;;;;;;12.03;69.13;100921.59;4984346;28;20041;-43
2023/03/29 01:04:17;;;;;;;12.75;3.10;;;;;;;11.98;68.10;100921.41;4993654;28;20438;-42
2023/03/29 01:06:54;;;;;;;9.82;3.90;;;;;;;11.99;68.22;100925.75;5003005;28;20026;-42
2023/03/29 01:09:26;;;;;;;10.88;2.85;;;;;;;11.84;67.89;100932.22;4992136;28;20058;-44
2023/03/29 01:12:00;;;;;;;12.30;3.10;;;;;;;12.01;68.51;100929.88;4993611;28;20509;-43
2023/03/29 01:14:34;;;;;;;10.60;2.63;;;;;;;11.87;68.63;100929.09;4994483;28;20045;-44
2023/03/29 01:17:00;;;;;;;11.35;2.70;;;;;;;11.93;68.13;100935.47;5008418;28;20052;-44
2023/03/29 01:19:32;;;;;;;15.50;2.92;;;;;;;11.90;67.72;100933.22;5010493;28;20050;-44
2023/03/29 01:22:27;;;;;;;9.20;2.78;;;;;;;11.81;68.25;100932.63;4992727;28;20033;-41
2023/03/29 01:25:04;;;;;;;12.02;2.65;;;;;;;11.90;66.86;100925.19;4996166;28;20398;-43
2023/03/29 01:27:55;;;;;;;8.35;2.33;;;;;;;11.82;67.86;100915.50;5010308;28;20091;-42
2023/03/29 01:30:48;;;;;;;11.00;2.42;;;;;;;11.76;67.08;100919.00;5011957;28;20128;-42
2023/03/29 01:33:23;;;;;;;8.50;2.42;;;;;;;11.80;66.32;100922.09;5010771;28;20468;-42
2023/03/29 01:36:07;;;;;;;12.05;2.90;;;;;;;11.74;66.79;100915.72;5010119;28;20694;-41
2023/03/29 01:38:43;;;;;;;7.03;2.65;;;;;;;11.77;67.00;100909.94;5010399;28;20116;-42
2023/03/29 01:41:11;;;;;;;12.77;2.72;;;;;;;11.64;67.07;100916.16;4997600;28;20029;-44
2023/03/29 01:44:09;;;;;;;21.85;3.35;;;;;;;11.63;66.75;100917.19;5010713;28;20022;-42
2023/03/29 01:46:50;;;;;;;13.93;2.65;;;;;;;11.44;66.69;100909.19;5007997;28;20473;-41
2023/03/29 01:49:31;;;;;;;9.00;2.58;;;;;;;11.30;67.69;100906.56;5009959;28;20059;-42
2023/03/29 01:52:20;;;;;;;14.00;2.90;;;;;;;11.31;68.31;100905.50;5009290;28;20100;-42
2023/03/29 01:54:55;;;;;;;15.60;3.45;;;;;;;11.35;67.42;100900.56;5000153;28;20042;-43
2023/03/29 01:57:23;;;;;;;13.02;3.08;;;;;;;10.88;69.34;100913.16;5010715;28;20030;-42
2023/03/29 01:59:54;;;;;;;13.85;3.08;;;;;;;10.95;70.30;100914.03;5017986;28;20056;-42
2023/03/29 02:02:23;;;;;;;9.70;2.95;;;;;;;10.98;69.61;100920.81;5012428;28;20030;-44
2023/03/29 02:04:53;;;;;;;7.85;2.78;;;;;;;11.06;69.73;100958.94;5001308;28;20038;-43
2023/03/29 02:07:29;;;;;;;6.47;2.05;;;;;;;10.70;66.88;100991.44;5011931;28;20103;-43
2023/03/29 02:09:57;;;;;;;9.82;3.00;;;;;;;10.18;69.87;100984.88;5012191;28;20062;-40
2023/03/29 02:12:23;;;;;;;11.27;3.35;;;;;;;9.78;70.74;100991.88;5020563;28;20036;-39
2023/03/29 02:14:49;;;;;;;9.23;2.13;;;;;;;9.45;72.56;100986.31;5015393;28;20049;-39
2023/03/29 02:17:23;;;;;;;6.47;1.58;;;;;;;9.23;73.55;100986.38;4996045;28;20050;-40
2023/03/29 02:20:16;;;;;;;9.75;2.10;;;;;;;9.15;74.15;100986.50;4992529;28;20497;-39
2023/03/29 02:22:50;;;;;;;5.18;1.30;;;;;;;9.20;73.94;100991.25;5003025;28;20033;-40
2023/03/29 02:25:16;;;;;;;7.03;2.13;;;;;;;9.04;74.21;100984.34;5011856;28;20026;-40
2023/03/29 02:27:43;;;;;;;7.75;1.65;;;;;;;8.97;75.78;100978.94;5011850;28;20030;-40
2023/03/29 02:30:11;;;;;;;4.93;1.45;;;;;;;9.01;75.85;100967.91;5011685;28;20129;-40
2023/03/29 02:33:14;;;;;;;8.43;1.30;;;;;;;8.86;75.29;100973.31;5010111;28;20021;-40
2023/03/29 02:35:53;;;;;;;4.03;1.17;;;;;;;8.98;76.06;100961.09;5008025;28;20034;-40
2023/03/29 02:38:24;;;;;;;6.60;1.38;;;;;;;8.81;73.61;100957.84;5010928;28;20030;-40
2023/03/29 02:40:51;;;;;;;7.32;2.22;;;;;;;8.76;74.50;100962.94;5010684;28;20029;-39
2023/03/29 02:43:20;;;;;;;5.25;2.00;;;;;;;8.71;75.74;100968.84;5003062;28;20391;-40
2023/03/29 02:45:47;;;;;;;4.95;1.63;;;;;;;8.57;76.42;100963.59;5011780;28;20034;-40
2023/03/29 02:48:17;;;;;;;7.28;1.80;;;;;;;8.57;77.05;100951.06;5011660;28;20026;-40
2023/03/29 02:50:48;;;;;;;5.57;1.50;;;;;;;8.49;78.07;100939.69;5011700;28;20382;-40
2023/03/29 02:53:18;;;;;;;5.93;1.40;;;;;;;8.59;77.88;100937.53;5014687;28;20046;-41
2023/03/29 02:55:45;;;;;;;5.47;1.40;;;;;;;8.65;78.30;100934.91;5014779;28;20532;-40
2023/03/29 02:58:14;;;;;;;5.25;1.48;;;;;;;8.63;78.29;100928.97;5014729;28;20096;-42
2023/03/29 03:00:46;;;;;;;4.57;1.30;;;;;;;8.70;78.53;100935.19;5029043;28;20096;-41
2023/03/29 03:03:14;;;;;;;6.82;1.58;;;;;;;8.86;78.32;100926.09;5006891;28;20038;-41
2023/03/29 03:05:40;;;;;;;7.10;1.60;;;;;;;8.90;78.79;100924.69;5009651;28;20027;-40
2023/03/29 03:08:07;;;;;;;10.75;2.05;;;;;;;8.97;78.19;100912.22;4994760;28;20032;-40
2023/03/29 03:10:34;;;;;;;9.43;2.05;;;;;;;8.68;78.68;100913.19;5011629;28;20014;-41
2023/03/29 03:13:01;;;;;;;4.63;1.58;;;;;;;8.78;78.52;100912.88;5000980;28;20022;-41
2023/03/29 03:15:27;;;;;;;5.88;1.85;;;;;;;8.49;81.67;100915.69;5014582;28;20021;-42
2023/03/29 03:17:54;;;;;;;7.55;2.50;;;;;;;8.75;81.35;100907.91;5013261;28;20029;-41
2023/03/29 03:20:21;;;;;;;7.88;2.75;;;;;;;8.30;83.57;100906.44;5014581;28;20418;-41
2023/03/29 03:22:47;;;;;;;11.55;3.10;;;;;;;8.28;85.00;100903.16;5000641;28;20038;-43
2023/03/29 03:25:19;;;;;;;9.23;3.70;;;;;;;8.24;85.81;100897.34;5005583;28;20033;-43
2023/03/29 03:27:47;;;;;;;9.02;4.07;;;;;;;8.25;86.21;100898.19;5021515;28;20508;-41
2023/03/29 03:30:14;;;;;;;10.02;3.67;;;;;;;8.53;83.48;100896.44;5000430;28;20054;-41
2023/03/29 03:32:42;;;;;;;11.30;3.22;;;;;;;8.38;84.05;100901.00;5003109;28;20030;-41
2023/03/29 03:35:11;;;;;;;7.57;3.38;;;;;;;8.41;84.43;100913.97;4997869;28;20462;-41
2023/03/29 03:37:37;;;;;;;6.95;2.70;;;;;;;8.41;85.11;100913.97;4997863;28;20030;-42
2023/03/29 03:40:05;;;;;;;8.15;2.58;;;;;;;8.38;84.17;100914.34;5009402;28;20026;-42
2023/03/29 03:42:32;;;;;;;8.10;2.40;;;;;;;7.83;87.31;100908.59;5034098;28;20095;-41
2023/03/29 03:44:58;;;;;;;5.07;2.60;;;;;;;8.20;86.32;100936.06;5033934;28;20036;-40
2023/03/29 03:47:24;;;;;;;11.55;2.85;;;;;;;8.36;85.41;100929.72;5025151;28;20105;-40
2023/03/29 03:49:50;;;;;;;7.03;2.15;;;;;;;8.43;85.07;100927.94;5011530;28;20454;-40
2023/03/29 03:52:20;;;;;;;9.52;2.80;;;;;;;8.09;87.14;100923.22;4994155;28;20022;-40
2023/03/29 03:54:47;;;;;;;5.07;2.50;;;;;;;8.01;87.59;100923.34;4994294;28;20029;-42
2023/03/29 03:57:13;;;;;;;6.78;2.30;;;;;;;8.07;87.32;100925.25;4995511;28;20551;-41
2023/03/29 03:59:39;;;;;;;5.45;2.70;;;;;;;8.18;86.53;100930.09;5007925;28;20062;-40
2023/03/29 04:02:06;;;;;;;6.25;2.47;;;;;;;8.20;85.88;100942.22;4994061;28;20030;-42
2023/03/29 04:04:33;;;;;;;7.43;2.33;;;;;;;8.01;86.33;100940.16;5005526;28;20034;-42
2023/03/29 04:07:01;;;;;;;6.15;2.40;;;;;;;8.13;85.49;100938.66;5012756;28;20037;-42
2023/03/29 04:09:30;;;;;;;10.10;2.60;;;;;;;8.26;85.71;100939.81;5013523;28;20028;-44
2023/03/29 04:11:57;;;;;;;7.68;2.55;;;;;;;8.51;84.01;100941.16;5013563;28;20041;-43
2023/03/29 04:14:24;;;;;;;5.15;1.92;;;;;;;8.53;83.32;100935.63;5010487;28;20476;-42
2023/03/29 04:16:52;;;;;;;7.38;2.28;;;;;;;8.32;83.81;100931.88;5010146;28;20435;-42
2023/03/29 04:19:18;;;;;;;8.15;2.15;;;;;;;8.36;83.07;100929.72;4992356;28;20145;-42
2023/03/29 04:21:46;;;;;;;7.65;2.22;;;;;;;8.40;82.71;100931.81;4998930;28;20112;-42
2023/03/29 04:24:12;;;;;;;8.82;2.05;;;;;;;8.57;81.85;100929.72;5009249;28;20037;-42
2023/03/29 04:26:39;;;;;;;7.55;2.13;;;;;;;8.37;82.02;100929.50;4997015;28;20030;-43
2023/03/29 04:29:05;;;;;;;6.13;2.38;;;;;;;8.23;82.66;100929.56;5013247;28;20062;-42
2023/03/29 04:31:32;;;;;;;6.97;2.50;;;;;;;8.02;83.62;100927.66;5011760;28;20113;-43
2023/03/29 04:33:58;;;;;;;7.55;2.38;;;;;;;8.11;82.98;100945.22;4995393;28;20042;-42
2023/03/29 04:36:25;;;;;;;8.55;2.28;;;;;;;8.33;81.55;100936.22;4997890;28;20382;-42
2023/03/29 04:38:51;;;;;;;5.57;2.17;;;;;;;8.35;81.45;100930.69;5011724;28;20465;-43
2023/03/29 04:41:20;;;;;;;6.90;2.08;;;;;;;8.34;81.73;100929.06;5010639;28;20030;-43
2023/03/29 04:43:46;;;;;;;6.43;1.98;;;;;;;8.18;82.87;100924.78;5012909;28;20509;-43
2023/03/29 04:46:13;;;;;;;8.63;2.13;;;;;;;8.04;83.34;100923.78;4996557;28;20046;-43
2023/03/29 04:48:40;;;;;;;6.85;1.90;;;;;;;8.00;83.58;100922.53;4999334;28;20023;-42
2023/03/29 04:51:07;;;;;;;7.43;2.03;;;;;;;7.91;83.96;100924.47;4992976;28;20073;-42
2023/03/29 04:53:33;;;;;;;10.80;2.22;;;;;;;7.73;85.22;100920.53;4993068;28;20138;-43
2023/03/29 04:55:59;;;;;;;17.60;2.90;;;;;;;7.45;86.42;100931.84;5004620;28;20042;-41
2023/03/29 04:58:26;;;;;;;10.55;2.53;;;;;;;7.67;85.93;100938.09;4992991;28;20467;-42
2023/03/29 05:00:59;;;;;;;10.55;2.60;;;;;;;7.54;86.24;100937.91;5006917;28;20622;-43
2023/03/29 05:03:25;;;;;;;9.43;2.17;;;;;;;7.58;85.73;100931.19;5011494;28;20076;-42
2023/03/29 05:05:52;;;;;;;9.68;2.35;;;;;;;7.47;86.76;100932.47;5010242;28;20382;-43
2023/03/29 05:08:18;;;;;;;10.60;2.53;;;;;;;7.55;86.02;100934.22;5007873;28;20022;-42
2023/03/29 05:10:45;;;;;;;6.88;2.72;;;;;;;7.26;87.81;100937.69;5009349;28;20022;-42
2023/03/29 05:13:11;;;;;;;12.10;3.72;;;;;;;7.33;88.20;100930.66;5012622;28;20053;-42
2023/03/29 05:15:37;;;;;;;10.18;2.88;;;;;;;7.44;87.80;100934.66;5011509;28;20112;-42
2023/03/29 05:18:03;;;;;;;12.98;3.33;;;;;;;7.30;89.16;100941.66;5011748;28;20057;-41
2023/03/29 05:20:30;;;;;;;8.57;2.45;;;;;;;7.47;88.40;100935.16;5010417;28;20023;-42
2023/03/29 05:22:56;;;;;;;9.55;2.17;;;;;;;7.33;88.97;100928.00;5012403;28;20034;-42
2023/03/29 05:25:24;;;;;;;5.65;1.83;;;;;;;7.41;88.72;100927.88;5009189;28;20037;-41
2023/03/29 05:27:51;;;;;;;8.38;2.05;;;;;;;7.34;89.16;100921.66;5001008;28;20482;-42
2023/03/29 05:30:17;;;;;;;5.28;1.70;;;;;;;7.30;88.64;100923.84;5004556;28;20128;-42
2023/03/29 05:32:43;;;;;;;7.13;2.08;;;;;;;7.29;88.18;100924.84;5012164;28;20487;-42
2023/03/29 05:35:10;;;;;;;9.68;2.25;;;;;;;7.34;87.29;100922.47;5010866;28;20064;-43
2023/03/29 05:37:37;;;;;;;6.68;1.73;;;;;;;7.36;87.72;100925.78;5011277;28;20383;-43
2023/03/29 05:40:07;;;;;;;7.75;2.20;;;;;;;7.52;86.20;100924.78;5008639;28;20026;-44
2023/03/29 05:42:33;;;;;;;12.20;2.20;;;;;;;7.51;85.46;100927.63;5010956;28;20022;-42
2023/03/29 05:44:59;;;;;;;8.07;1.80;;;;;;;7.51;85.17;100923.13;5011280;28;20033;-44
2023/03/29 05:47:27;;;;;;;6.13;2.33;;;;;;;7.47;85.56;100921.00;5011786;28;20033;-42
2023/03/29 05:49:53;;;;;;;5.97;1.88;;;;;;;7.54;85.45;100916.59;5009524;28;20030;-42
2023/03/29 05:52:19;;;;;;;7.90;1.83;;;;;;;7.55;85.78;100916.44;5012117;28;20112;-42
2023/03/29 05:54:46;;;;;;;10.52;1.77;;;;;;;7.47;86.07;100908.50;5010411;28;20026;-41
2023/03/29 05:57:12;;;;;;;9.98;2.33;;;;;;;7.36;86.40;100911.63;5011755;28;20181;-42
2023/03/29 05:59:38;;;;;;;7.05;2.47;;;;;;;7.29;86.75;100905.41;5010288;28;20155;-42
2023/03/29 06:02:04;;;;;;;5.03;1.73;;;;;;;7.32;87.06;100908.50;5011993;28;20117;-42
2023/03/29 06:04:32;;;;;;;13.45;2.58;;;;;;;7.46;86.32;100903.38;5009784;28;20482;-41
2023/03/29 06:07:00;;;;;;;9.63;2.03;;;;;;;7.54;86.12;100900.59;5011820;28;20049;-41
2023/03/29 06:09:27;;;;;;;11.15;2.47;;;;;;;7.63;85.27;100899.50;5008329;28;20026;-42
2023/03/29 06:11:55;;;;;;;5.35;1.77;;;;;;;7.68;85.19;100900.59;5011881;28;20018;-41
2023/03/29 06:14:23;;;;;;;9.02;2.35;;;;;;;7.59;86.09;100906.22;5008701;28;20589;-41
2023/03/29 06:16:50;;;;;;;7.13;2.00;;;;;;;7.55;86.56;100897.78;5008303;28;20533;-41
2023/03/29 06:19:17;;;;;;;6.30;1.90;;;;;;;7.65;86.17;100898.28;5009064;28;20049;-41
2023/03/29 06:21:43;;;;;;;7.68;2.03;;;;;;;7.66;86.37;100899.13;5011565;28;20026;-42
2023/03/29 06:24:10;;;;;;;5.95;2.03;;;;;;;7.78;86.41;100891.50;5007810;28;20030;-42
2023/03/29 06:26:36;;;;;;;8.88;2.22;;;;;;;7.75;86.78;100891.88;5009605;28;20556;-42
2023/03/29 06:29:03;;;;;;;9.10;2.45;;;;;;;7.76;86.74;100899.66;4998212;28;20038;-42
2023/03/29 06:31:30;;;;;;;9.65;2.28;;;;;;;7.87;86.20;100901.03;5015296;28;20494;-42
2023/03/29 06:33:57;;;;;;;8.45;2.13;;;;;;;7.85;86.35;100903.06;5013357;28;20030;-42
2023/03/29 06:36:23;;;;;;;7.05;2.10;;;;;;;7.90;85.92;100903.34;5011028;28;20486;-42
2023/03/29 06:38:49;;;;;;;11.18;2.05;;;;;;;7.71;87.16;100902.06;5014373;28;20029;-41
2023/03/29 06:41:16;;;;;;;7.95;2.65;;;;;;;7.57;87.99;100898.41;5011386;28;20482;-42
2023/03/29 06:43:42;;;;;;;6.05;2.22;;;;;;;7.62;88.03;100895.19;5014993;28;20030;-43
2023/03/29 06:46:10;;;;;;;7.97;2.42;;;;;;;7.42;89.40;100892.25;5013188;28;20034;-41
2023/03/29 06:48:38;;;;;;;9.93;2.67;;;;;;;7.42;90.05;100897.59;5014975;28;20025;-41
2023/03/29 06:51:06;;;;;;;8.75;2.30;;;;;;;7.60;89.05;100890.03;5013117;28;20026;-42
2023/03/29 06:53:33;;;;;;;8.98;2.45;;;;;;;7.74;88.63;100890.22;5015117;28;20057;-42
2023/03/29 06:56:03;;;;;;;6.63;2.33;;;;;;;7.65;89.50;100884.16;5011701;28;20029;-40
2023/03/29 06:58:30;;;;;;;6.72;2.30;;;;;;;7.82;89.22;100876.78;5014494;28;20032;-43
2023/03/29 07:01:01;;;;;;;9.95;2.70;;;;;;;7.63;90.29;100884.34;5012702;28;20470;-41
2023/03/29 07:03:27;;;;;;;8.75;2.40;;;;;;;7.64;90.45;100880.66;5014859;28;20033;-43
2023/03/29 07:06:00;;;;;;;12.32;3.63;;;;;;;7.66;89.55;100878.66;5011446;28;20036;-41
2023/03/29 07:08:30;;;;;;;8.82;2.72;;;;;;;7.45;90.68;100875.91;5014398;28;20053;-43
2023/03/29 07:10:57;;;;;;;10.30;3.17;;;;;;;7.56;90.71;100871.97;5012522;28;20225;-41
2023/03/29 07:13:25;;;;;;;9.23;3.00;;;;;;;7.76;89.51;100872.19;5014500;28;20040;-40
2023/03/29 07:15:51;;;;;;;11.27;2.97;;;;;;;7.66;90.45;100868.00;5013462;28;20065;-42
2023/03/29 07:18:17;;;;;;;10.15;3.25;;;;;;;7.65;90.36;100871.66;5007175;28;20053;-41
2023/03/29 07:20:46;;;;;;;11.77;2.60;;;;;;;7.74;90.04;100875.06;5014551;28;20080;-41
2023/03/29 07:23:12;;;;;;;14.63;3.35;;;;;;;7.73;89.84;100869.91;5011582;28;20033;-42
2023/03/29 07:25:39;;;;;;;6.00;2.67;;;;;;;7.96;88.63;100873.25;5014273;28;20490;-41
2023/03/29 07:28:06;;;;;;;15.88;2.78;;;;;;;7.96;88.25;100875.09;5006131;28;20383;-41
2023/03/29 07:30:33;;;;;;;7.85;2.55;;;;;;;7.90;88.10;100879.34;5014022;28;20040;-42
2023/03/29 07:32:59;;;;;;;7.57;2.85;;;;;;;7.67;89.18;100877.66;5012820;28;20033;-42
2023/03/29 07:35:26;;;;;;;10.75;2.40;;;;;;;7.71;88.63;100878.06;5012097;28;20069;-42
2023/03/29 07:37:56;;;;;;;11.73;2.90;;;;;;;7.76;88.81;100875.69;5012594;28;20034;-41
2023/03/29 07:40:22;;;;;;;6.70;2.40;;;;;;;7.96;87.89;100878.59;5010056;28;20026;-41
2023/03/29 07:42:52;;;;;;;10.82;2.88;;;;;;;8.07;87.59;100863.94;5013864;28;20123;-41
2023/03/29 07:45:21;;;;;;;15.77;3.08;;;;;;;8.16;87.48;100863.66;5011774;28;20362;-41
2023/03/29 07:47:47;;;;;;;8.30;2.90;;;;;;;7.98;88.35;100855.22;5013547;28;20029;-41
2023/03/29 07:50:15;;;;;;;7.78;2.72;;;;;;;7.97;88.71;100860.75;5011532;28;20068;-40
2023/03/29 07:52:42;;;;;;;10.38;2.70;;;;;;;7.88;89.29;100860.03;5013707;28;20160;-41
2023/03/29 07:55:10;;;;;;;12.43;3.33;;;;;;;7.92;89.65;100863.97;5010997;28;20030;-43
2023/03/29 07:57:36;;;;;;;11.55;2.70;;;;;;;7.96;89.60;100869.78;5013396;28;20091;-41
2023/03/29 08:00:10;;;;;;;6.38;2.47;;;;;;;8.06;88.80;100868.47;5012469;28;20104;-42
2023/03/29 08:02:36;;;;;;;16.13;3.10;;;;;;;8.08;88.64;100865.59;5013849;28;20036;-42
2023/03/29 08:05:03;;;;;;;16.05;3.38;;;;;;;8.17;88.40;100862.63;5011789;28;20502;-41
2023/03/29 08:07:30;;;;;;;11.93;3.47;;;;;;;8.14;87.85;100863.00;5013498;28;20100;-41
2023/03/29 08:09:56;;;;;;;13.43;3.22;;;;;;;8.06;88.90;100865.78;5012150;28;20540;-41
2023/03/29 08:12:22;;;;;;;13.82;3.05;;;;;;;8.30;87.88;100858.44;5012218;28;20482;-40
2023/03/29 08:14:49;;;;;;;12.93;3.30;;;;;;;8.30;87.92;100850.44;5011643;28;20034;-41
2023/03/29 08:17:15;;;;;;;14.02;3.50;;;;;;;8.37;87.30;100856.69;5011423;28;20095;-41
2023/03/29 08:19:41;;;;;;;7.22;2.42;;;;;;;8.42;87.14;100855.09;5010684;28;20097;-40
2023/03/29 08:22:08;;;;;;;17.63;3.78;;;;;;;8.43;86.54;100853.25;5013064;28;20401;-40
2023/03/29 08:24:35;;;;;;;20.13;3.83;;;;;;;8.15;87.50;100858.47;5010060;28;20100;-40
2023/03/29 08:27:01;;;;;;;15.50;3.42;;;;;;;8.31;87.40;100860.06;5008559;28;20132;-40
2023/03/29 08:29:28;;;;;;;13.90;3.60;;;;;;;8.38;87.60;100861.00;5009527;28;20034;-40
2023/03/29 08:31:55;;;;;;;19.27;4.25;;;;;;;8.46;87.38;100861.69;5013223;28;20049;-40
2023/03/29 08:34:21;;;;;;;9.40;2.90;;;;;;;8.39;86.37;100860.00;5006598;28;20030;-40
2023/03/29 08:36:47;;;;;;;13.88;3.03;;;;;;;8.44;84.98;100860.25;5012542;28;20152;-40
2023/03/29 08:39:13;;;;;;;8.60;2.97;;;;;;;8.46;84.25;100858.22;5010346;28;20398;-40
2023/03/29 08:41:58;;;;;;;16.58;3.28;;;;;;;8.55;83.97;100857.06;5012859;28;20418;-40
2023/03/29 08:44:33;;;;;;;13.15;3.17;;;;;;;8.59;84.12;100855.66;5011163;28;20037;-40
2023/03/29 08:47:27;;;;;;;11.63;2.40;;;;;;;8.46;83.51;100852.88;5012620;28;20030;-40
2023/03/29 08:49:55;;;;;;;12.95;2.08;;;;;;;8.32;83.40;100845.72;5011188;28;20132;-40
2023/03/29 08:52:33;;;;;;;8.15;2.30;;;;;;;8.18;84.38;100844.78;5012728;28;20033;-40
2023/03/29 08:55:03;;;;;;;5.55;1.88;;;;;;;8.19;83.68;100841.09;5009794;28;20048;-40
2023/03/29 08:57:32;;;;;;;6.93;1.63;;;;;;;8.27;82.54;100854.28;5012498;28;20030;-41
2023/03/29 09:00:03;;;;;;;6.57;1.92;;;;;;;8.27;82.58;100846.28;5009190;28;20030;-40
2023/03/29 09:02:33;;;;;;;9.15;2.03;;;;;;;8.27;82.73;100853.47;5012579;28;20378;-40
2023/03/29 09:05:17;;;;;;;7.55;2.03;;;;;;;8.24;83.31;100853.88;5010351;28;20038;-40
2023/03/29 09:07:43;;;;;;;7.32;1.85;;;;;;;8.26;83.44;100851.81;5010244;28;20028;-40
2023/03/29 09:10:17;;;;;;;8.57;2.65;;;;;;;8.28;83.74;100847.97;5003103;28;20033;-41
2023/03/29 09:12:43;;;;;;;8.48;2.10;;;;;;;8.33;84.17;100850.03;4992598;28;20402;-41
2023/03/29 09:15:23;;;;;;;11.15;2.45;;;;;;;8.46;83.58;100842.19;4994830;28;20398;-41
2023/03/29 09:18:00;;;;;;;13.88;2.55;;;;;;;8.55;83.69;100845.53;5011958;28;20029;-40
2023/03/29 09:20:26;;;;;;;12.88;2.63;;;;;;;8.57;83.78;100844.34;5009591;28;20142;-40
2023/03/29 09:23:17;;;;;;;16.65;2.65;;;;;;;8.69;83.30;100847.31;5007568;28;20104;-41
2023/03/29 09:26:17;;;;;;;13.30;2.78;;;;;;;8.75;83.53;100840.38;5009663;28;20021;-41
2023/03/29 09:29:19;;;;;;;10.30;2.55;;;;;;;8.78;83.49;100840.00;4993651;28;20118;-40
2023/03/29 09:31:47;;;;;;;9.27;2.40;;;;;;;8.79;83.07;100828.31;5020045;28;20125;-40
2023/03/29 09:34:16;;;;;;;15.88;2.85;;;;;;;8.68;83.54;100822.47;5012123;28;20379;-41
2023/03/29 09:36:51;;;;;;;15.48;3.20;;;;;;;8.64;83.57;100821.22;5008198;28;20046;-40
2023/03/29 09:39:22;;;;;;;19.00;3.30;;;;;;;8.69;82.72;100815.28;5011746;28;20026;-41
2023/03/29 09:42:04;;;;;;;17.75;3.22;;;;;;;8.57;83.23;100817.66;5010502;28;20041;-41
2023/03/29 09:44:43;;;;;;;12.57;2.85;;;;;;;8.68;82.47;100809.13;5010511;28;20490;-41
2023/03/29 09:47:12;;;;;;;14.88;3.35;;;;;;;8.62;82.64;100809.09;5010922;28;20036;-41
2023/03/29 09:49:46;;;;;;;11.25;3.13;;;;;;;8.64;82.70;100802.53;5009980;28;20029;-40
2023/03/29 09:52:15;;;;;;;11.15;2.83;;;;;;;8.64;82.94;100805.19;5011876;28;20018;-41
2023/03/29 09:54:43;;;;;;;16.48;3.30;;;;;;;8.71;82.53;100808.72;5004357;28;20062;-41
2023/03/29 09:57:15;;;;;;;12.48;3.60;;;;;;;8.73;82.06;100798.72;5011786;28;20034;-40
2023/03/29 09:59:44;;;;;;;12.48;3.05;;;;;;;8.88;81.65;100795.94;5010959;28;20068;-40
2023/03/29 10:02:12;;;;;;;9.65;2.65;;;;;;;8.88;81.44;100792.41;5014251;28;20026;-40
2023/03/29 10:04:41;;;;;;;7.88;2.83;;;;;;;8.74;81.84;100791.53;5012861;28;20026;-40
2023/03/29 10:07:15;;;;;;;14.50;3.13;;;;;;;8.86;80.95;100789.94;5015054;28;20371;-40
2023/03/29 10:09:44;;;;;;;13.57;2.90;;;;;;;8.93;81.02;100795.31;5010908;28;20026;-42
2023/03/29 10:12:11;;;;;;;11.10;2.28;;;;;;;8.92;80.71;100791.00;5014283;28;20029;-40
2023/03/29 10:14:44;;;;;;;8.60;2.80;;;;;;;8.97;80.53;100791.25;5013826;28;20386;-41
2023/03/29 10:17:20;;;;;;;13.75;2.83;;;;;;;8.95;80.38;100787.97;5015321;28;20113;-42
2023/03/29 10:19:49;;;;;;;14.75;2.35;;;;;;;8.97;80.77;100793.91;5011665;28;20029;-40
2023/03/29 10:22:22;;;;;;;11.02;2.95;;;;;;;8.88;80.99;100797.75;4995778;28;20181;-40
2023/03/29 10:24:51;;;;;;;15.98;3.65;;;;;;;8.88;80.80;100781.75;4999317;28;20022;-40
2023/03/29 10:27:26;;;;;;;16.08;2.80;;;;;;;8.90;80.26;100780.53;5008500;28;20078;-41
2023/03/29 10:29:54;;;;;;;21.80;3.17;;;;;;;8.80;80.95;100781.91;5000650;28;20033;-41
2023/03/29 10:32:36;;;;;;;7.30;2.83;;;;;;;8.87;80.69;100774.75;5013241;28;20053;-40
2023/03/29 10:35:19;;;;;;;11.65;3.20;;;;;;;8.86;80.31;100768.59;5012255;28;20026;-41
2023/03/29 10:37:50;;;;;;;19.42;3.85;;;;;;;8.87;80.20;100770.25;5013309;28;20109;-41
2023/03/29 10:40:32;;;;;;;12.10;2.75;;;;;;;8.84;79.75;100772.50;5012091;28;20057;-41
2023/03/29 10:43:25;;;;;;;15.18;3.47;;;;;;;8.95;79.56;100766.59;5013310;28;20417;-41
2023/03/29 10:45:54;;;;;;;12.15;2.80;;;;;;;8.93;80.25;100773.97;5004000;28;20045;-41
2023/03/29 10:48:27;;;;;;;10.45;3.50;;;;;;;9.01;80.58;100763.16;5013911;28;20191;-41
2023/03/29 10:50:57;;;;;;;12.40;3.13;;;;;;;9.04;80.34;100764.59;5014984;28;20437;-41
2023/03/29 10:53:26;;;;;;;16.73;3.30;;;;;;;9.11;80.23;100754.78;5012473;28;20037;-41
2023/03/29 10:59:13;;;;;;;13.95;2.97;;;;;;;9.08;79.92;100753.31;5031850;28;20414;-40
2023/03/29 11:02:08;;;;;;;12.15;2.65;;;;;;;9.13;79.25;100761.56;5010705;28;20056;-41
2023/03/29 11:05:02;;;;;;;10.37;3.20;;;;;;;8.99;80.17;100757.16;5014536;28;20121;-42
2023/03/29 11:07:28;;;;;;;17.27;3.15;;;;;;;9.03;80.49;100762.94;5006640;28;20483;-40
2023/03/29 11:10:00;;;;;;;11.95;3.65;;;;;;;8.98;81.79;100760.84;5007495;28;20052;-40
2023/03/29 11:12:42;;;;;;;15.30;2.92;;;;;;;8.97;82.57;100753.88;5014584;28;20037;-40
2023/03/29 11:15:36;;;;;;;14.30;3.20;;;;;;;9.03;82.44;100747.75;4996793;28;20153;-39
2023/03/29 11:18:21;;;;;;;15.90;3.50;;;;;;;8.97;83.13;100740.53;5014071;28;20498;-40
2023/03/29 11:21:07;;;;;;;10.48;3.15;;;;;;;8.93;83.33;100747.28;5014696;28;20029;-40
2023/03/29 11:24:01;;;;;;;22.83;3.70;;;;;;;8.92;84.01;100742.97;5013635;28;20084;-41
2023/03/29 11:26:39;;;;;;;8.63;2.35;;;;;;;8.84;84.52;100748.47;5014529;28;20026;-40
2023/03/29 11:29:34;;;;;;;5.05;2.20;;;;;;;8.81;84.65;100740.84;5014037;28;20114;-40
2023/03/29 11:32:04;;;;;;;6.07;2.10;;;;;;;8.65;84.47;100745.47;4979031;28;20117;-40
2023/03/29 11:34:48;;;;;;;6.50;1.60;;;;;;;8.85;83.52;100745.59;5014194;28;20493;-41
2023/03/29 11:37:14;;;;;;;14.20;2.45;;;;;;;9.04;82.88;100737.88;5014026;28;20529;-41
2023/03/29 11:39:58;;;;;;;9.38;2.30;;;;;;;9.01;82.76;100733.78;4999499;28;20026;-41
2023/03/29 11:42:34;;;;;;;8.70;2.28;;;;;;;8.65;84.10;100736.66;4996021;28;20031;-41
2023/03/29 11:45:05;;;;;;;9.60;2.55;;;;;;;8.80;84.19;100741.88;5013511;28;20582;-40
2023/03/29 11:47:35;;;;;;;6.15;2.15;;;;;;;8.98;83.71;100788.38;5012900;28;20092;-40
2023/03/29 11:50:13;;;;;;;9.18;2.35;;;;;;;8.86;82.25;100775.78;5013739;28;20032;-39